sensor_id;sensor_type;location;lat;lon;timestamp;P1;durP1;ratioP1;P2;durP2;ratioP2
36441;SDS011;64346;50.820;16.274;2023-06-01T00:01:06;26.40;;;12.52;;
36441;SDS011;64346;50.820;16.274;2023-06-01T00:03:43;25.38;;;10.73;;
36441;SDS011;64346;50.820;16.274;2023-06-01T00:06:12;26.55;;;12.30;;
36441;SDS011;64346;50.820;16.274;2023-06-01T00:08:39;26.35;;;11.40;;
36441;SDS011;64346;50.820;16.274;2023-06-01T00:11:06;26.48;;;11.68;;
36441;SDS011;64346;50.820;16.274;2023-06-01T00:13:36;28.70;;;12.88;;
36441;SDS011;64346;50.820;16.274;2023-06-01T00:16:06;27.88;;;11.70;;
36441;SDS011;64346;50.820;16.274;2023-06-01T00:18:38;22.80;;;11.50;;
36441;SDS011;64346;50.820;16.274;2023-06-01T00:21:05;26.05;;;11.95;;
36441;SDS011;64346;50.820;16.274;2023-06-01T00:23:33;25.63;;;12.77;;
36441;SDS011;64346;50.820;16.274;2023-06-01T00:26:00;27.40;;;11.23;;
36441;SDS011;64346;50.820;16.274;2023-06-01T00:28:28;25.63;;;12.15;;
36441;SDS011;64346;50.820;16.274;2023-06-01T00:30:55;25.77;;;12.23;;
36441;SDS011;64346;50.820;16.274;2023-06-01T00:33:23;23.63;;;11.35;;
36441;SDS011;64346;50.820;16.274;2023-06-01T00:35:55;23.88;;;11.60;;
36441;SDS011;64346;50.820;16.274;2023-06-01T00:38:22;24.17;;;11.32;;
36441;SDS011;64346;50.820;16.274;2023-06-01T00:40:52;23.70;;;11.25;;
36441;SDS011;64346;50.820;16.274;2023-06-01T00:43:19;23.85;;;11.45;;
36441;SDS011;64346;50.820;16.274;2023-06-01T00:45:47;27.92;;;11.63;;
36441;SDS011;64346;50.820;16.274;2023-06-01T00:48:14;25.60;;;11.32;;
36441;SDS011;64346;50.820;16.274;2023-06-01T00:50:42;24.48;;;10.82;;
36441;SDS011;64346;50.820;16.274;2023-06-01T00:53:15;29.35;;;11.40;;
36441;SDS011;64346;50.820;16.274;2023-06-01T00:55:47;21.83;;;10.70;;
36441;SDS011;64346;50.820;16.274;2023-06-01T00:58:14;20.38;;;10.13;;
36441;SDS011;64346;50.820;16.274;2023-06-01T01:00:42;23.98;;;10.63;;
36441;SDS011;64346;50.820;16.274;2023-06-01T01:03:10;19.85;;;9.60;;
36441;SDS011;64346;50.820;16.274;2023-06-01T01:05:39;19.45;;;9.50;;
36441;SDS011;64346;50.820;16.274;2023-06-01T01:08:17;17.88;;;9.18;;
36441;SDS011;64346;50.820;16.274;2023-06-01T01:16:11;19.85;;;9.05;;
36441;SDS011;64346;50.820;16.274;2023-06-01T01:18:58;20.33;;;9.70;;
36441;SDS011;64346;50.820;16.274;2023-06-01T01:21:36;17.75;;;8.68;;
36441;SDS011;64346;50.820;16.274;2023-06-01T01:24:15;20.73;;;8.95;;
36441;SDS011;64346;50.820;16.274;2023-06-01T01:30:02;17.75;;;8.15;;
36441;SDS011;64346;50.820;16.274;2023-06-01T01:32:30;17.48;;;7.60;;
36441;SDS011;64346;50.820;16.274;2023-06-01T01:34:58;18.73;;;7.97;;
36441;SDS011;64346;50.820;16.274;2023-06-01T01:37:26;21.08;;;7.85;;
36441;SDS011;64346;50.820;16.274;2023-06-01T01:39:53;19.60;;;8.45;;
36441;SDS011;64346;50.820;16.274;2023-06-01T01:42:24;19.77;;;7.38;;
36441;SDS011;64346;50.820;16.274;2023-06-01T01:44:51;17.88;;;7.18;;
36441;SDS011;64346;50.820;16.274;2023-06-01T01:49:53;20.15;;;7.82;;
36441;SDS011;64346;50.820;16.274;2023-06-01T01:52:34;17.13;;;7.05;;
36441;SDS011;64346;50.820;16.274;2023-06-01T01:55:05;15.32;;;7.22;;
36441;SDS011;64346;50.820;16.274;2023-06-01T01:57:34;16.63;;;8.13;;
36441;SDS011;64346;50.820;16.274;2023-06-01T02:00:03;18.98;;;8.60;;
36441;SDS011;64346;50.820;16.274;2023-06-01T02:02:32;17.55;;;7.65;;
36441;SDS011;64346;50.820;16.274;2023-06-01T02:04:59;20.48;;;9.40;;
36441;SDS011;64346;50.820;16.274;2023-06-01T02:07:32;18.50;;;8.70;;
36441;SDS011;64346;50.820;16.274;2023-06-01T02:09:59;22.08;;;9.70;;
36441;SDS011;64346;50.820;16.274;2023-06-01T02:12:26;19.35;;;9.70;;
36441;SDS011;64346;50.820;16.274;2023-06-01T02:14:56;21.60;;;9.63;;
36441;SDS011;64346;50.820;16.274;2023-06-01T02:17:23;20.33;;;9.38;;
36441;SDS011;64346;50.820;16.274;2023-06-01T02:19:50;16.77;;;8.05;;
36441;SDS011;64346;50.820;16.274;2023-06-01T02:22:18;22.80;;;9.55;;
36441;SDS011;64346;50.820;16.274;2023-06-01T02:24:45;19.83;;;8.90;;
36441;SDS011;64346;50.820;16.274;2023-06-01T02:27:15;23.92;;;8.90;;
36441;SDS011;64346;50.820;16.274;2023-06-01T02:29:42;20.52;;;8.65;;
36441;SDS011;64346;50.820;16.274;2023-06-01T02:32:10;18.20;;;8.13;;
36441;SDS011;64346;50.820;16.274;2023-06-01T02:34:37;17.83;;;7.85;;
36441;SDS011;64346;50.820;16.274;2023-06-01T02:37:05;18.67;;;8.02;;
36441;SDS011;64346;50.820;16.274;2023-06-01T02:39:34;15.90;;;7.20;;
36441;SDS011;64346;50.820;16.274;2023-06-01T02:42:02;20.17;;;8.07;;
36441;SDS011;64346;50.820;16.274;2023-06-01T02:44:29;25.60;;;10.18;;
36441;SDS011;64346;50.820;16.274;2023-06-01T02:46:56;29.08;;;10.82;;
36441;SDS011;64346;50.820;16.274;2023-06-01T02:49:26;30.52;;;12.00;;
36441;SDS011;64346;50.820;16.274;2023-06-01T02:51:53;29.80;;;12.38;;
36441;SDS011;64346;50.820;16.274;2023-06-01T02:54:20;32.60;;;14.05;;
36441;SDS011;64346;50.820;16.274;2023-06-01T02:56:48;30.98;;;12.52;;
36441;SDS011;64346;50.820;16.274;2023-06-01T02:59:15;30.80;;;14.48;;
36441;SDS011;64346;50.820;16.274;2023-06-01T03:04:16;33.40;;;14.20;;
36441;SDS011;64346;50.820;16.274;2023-06-01T03:06:43;33.33;;;14.88;;
36441;SDS011;64346;50.820;16.274;2023-06-01T03:09:13;29.65;;;14.23;;
36441;SDS011;64346;50.820;16.274;2023-06-01T03:11:41;33.90;;;12.63;;
36441;SDS011;64346;50.820;16.274;2023-06-01T03:14:10;31.88;;;13.35;;
36441;SDS011;64346;50.820;16.274;2023-06-01T03:16:38;28.25;;;12.25;;
36441;SDS011;64346;50.820;16.274;2023-06-01T03:19:05;26.67;;;12.15;;
36441;SDS011;64346;50.820;16.274;2023-06-01T03:21:35;24.40;;;11.30;;
36441;SDS011;64346;50.820;16.274;2023-06-01T03:24:02;35.25;;;10.68;;
36441;SDS011;64346;50.820;16.274;2023-06-01T03:26:29;24.77;;;10.93;;
36441;SDS011;64346;50.820;16.274;2023-06-01T03:28:57;22.55;;;11.07;;
36441;SDS011;64346;50.820;16.274;2023-06-01T03:31:24;23.95;;;11.35;;
36441;SDS011;64346;50.820;16.274;2023-06-01T03:33:54;24.75;;;11.07;;
36441;SDS011;64346;50.820;16.274;2023-06-01T03:36:21;24.58;;;11.18;;
36441;SDS011;64346;50.820;16.274;2023-06-01T03:38:48;25.35;;;10.27;;
36441;SDS011;64346;50.820;16.274;2023-06-01T03:41:18;22.92;;;10.70;;
36441;SDS011;64346;50.820;16.274;2023-06-01T03:43:47;23.95;;;10.77;;
36441;SDS011;64346;50.820;16.274;2023-06-01T03:46:17;29.15;;;11.50;;
36441;SDS011;64346;50.820;16.274;2023-06-01T03:48:49;22.75;;;11.07;;
36441;SDS011;64346;50.820;16.274;2023-06-01T03:51:16;23.02;;;10.48;;
36441;SDS011;64346;50.820;16.274;2023-06-01T03:53:44;23.40;;;10.05;;
36441;SDS011;64346;50.820;16.274;2023-06-01T03:56:14;26.30;;;10.80;;
36441;SDS011;64346;50.820;16.274;2023-06-01T03:58:41;26.23;;;10.65;;
36441;SDS011;64346;50.820;16.274;2023-06-01T04:01:11;24.42;;;9.50;;
36441;SDS011;64346;50.820;16.274;2023-06-01T04:03:42;19.98;;;9.35;;
36441;SDS011;64346;50.820;16.274;2023-06-01T04:06:10;21.88;;;9.00;;
36441;SDS011;64346;50.820;16.274;2023-06-01T04:08:40;18.67;;;9.25;;
36441;SDS011;64346;50.820;16.274;2023-06-01T04:11:07;23.77;;;9.73;;
36441;SDS011;64346;50.820;16.274;2023-06-01T04:13:34;19.58;;;8.43;;
36441;SDS011;64346;50.820;16.274;2023-06-01T04:16:02;21.52;;;9.20;;
36441;SDS011;64346;50.820;16.274;2023-06-01T04:18:31;18.65;;;9.43;;
36441;SDS011;64346;50.820;16.274;2023-06-01T04:21:01;19.30;;;8.63;;
36441;SDS011;64346;50.820;16.274;2023-06-01T04:23:29;20.42;;;9.25;;
36441;SDS011;64346;50.820;16.274;2023-06-01T04:25:56;24.20;;;10.13;;
36441;SDS011;64346;50.820;16.274;2023-06-01T04:28:26;22.52;;;10.20;;
36441;SDS011;64346;50.820;16.274;2023-06-01T04:30:56;19.20;;;9.07;;
36441;SDS011;64346;50.820;16.274;2023-06-01T04:33:23;20.38;;;8.88;;
36441;SDS011;64346;50.820;16.274;2023-06-01T04:35:53;18.13;;;8.65;;
36441;SDS011;64346;50.820;16.274;2023-06-01T04:38:20;19.63;;;8.52;;
36441;SDS011;64346;50.820;16.274;2023-06-01T04:40:48;17.70;;;7.07;;
36441;SDS011;64346;50.820;16.274;2023-06-01T04:43:17;15.05;;;6.68;;
36441;SDS011;64346;50.820;16.274;2023-06-01T04:45:45;15.77;;;6.35;;
36441;SDS011;64346;50.820;16.274;2023-06-01T04:48:12;15.65;;;6.80;;
36441;SDS011;64346;50.820;16.274;2023-06-01T04:50:40;14.27;;;6.22;;
36441;SDS011;64346;50.820;16.274;2023-06-01T04:53:07;14.20;;;5.43;;
36441;SDS011;64346;50.820;16.274;2023-06-01T04:55:37;12.88;;;5.28;;
36441;SDS011;64346;50.820;16.274;2023-06-01T04:58:06;12.07;;;4.72;;
36441;SDS011;64346;50.820;16.274;2023-06-01T05:00:34;12.38;;;4.88;;
36441;SDS011;64346;50.820;16.274;2023-06-01T05:03:01;9.38;;;4.28;;
36441;SDS011;64346;50.820;16.274;2023-06-01T05:05:29;9.00;;;3.85;;
36441;SDS011;64346;50.820;16.274;2023-06-01T05:07:58;9.95;;;3.70;;
36441;SDS011;64346;50.820;16.274;2023-06-01T05:10:29;23.00;;;12.10;;
36441;SDS011;64346;50.820;16.274;2023-06-01T05:12:56;11.88;;;5.10;;
36441;SDS011;64346;50.820;16.274;2023-06-01T05:15:24;9.10;;;3.55;;
36441;SDS011;64346;50.820;16.274;2023-06-01T05:17:51;11.75;;;3.60;;
36441;SDS011;64346;50.820;16.274;2023-06-01T05:20:18;8.00;;;3.20;;
36441;SDS011;64346;50.820;16.274;2023-06-01T05:22:48;9.90;;;3.70;;
36441;SDS011;64346;50.820;16.274;2023-06-01T05:25:16;7.75;;;3.10;;
36441;SDS011;64346;50.820;16.274;2023-06-01T05:27:43;10.38;;;4.20;;
36441;SDS011;64346;50.820;16.274;2023-06-01T05:30:10;7.63;;;2.83;;
36441;SDS011;64346;50.820;16.274;2023-06-01T05:32:38;8.88;;;3.22;;
36441;SDS011;64346;50.820;16.274;2023-06-01T05:35:06;6.63;;;2.92;;
36441;SDS011;64346;50.820;16.274;2023-06-01T05:37:39;10.10;;;4.00;;
36441;SDS011;64346;50.820;16.274;2023-06-01T05:40:07;8.27;;;2.70;;
36441;SDS011;64346;50.820;16.274;2023-06-01T05:42:34;11.70;;;3.20;;
36441;SDS011;64346;50.820;16.274;2023-06-01T05:45:02;10.32;;;3.97;;
36441;SDS011;64346;50.820;16.274;2023-06-01T05:47:29;11.85;;;5.07;;
36441;SDS011;64346;50.820;16.274;2023-06-01T05:49:57;8.80;;;3.83;;
36441;SDS011;64346;50.820;16.274;2023-06-01T05:52:26;8.40;;;3.28;;
36441;SDS011;64346;50.820;16.274;2023-06-01T05:54:54;7.93;;;3.03;;
36441;SDS011;64346;50.820;16.274;2023-06-01T05:57:21;5.95;;;2.75;;
36441;SDS011;64346;50.820;16.274;2023-06-01T05:59:49;4.97;;;2.40;;
36441;SDS011;64346;50.820;16.274;2023-06-01T06:02:16;9.98;;;2.63;;
36441;SDS011;64346;50.820;16.274;2023-06-01T06:04:43;5.13;;;2.30;;
36441;SDS011;64346;50.820;16.274;2023-06-01T06:07:11;7.03;;;2.90;;
36441;SDS011;64346;50.820;16.274;2023-06-01T06:09:39;5.57;;;2.30;;
36441;SDS011;64346;50.820;16.274;2023-06-01T06:12:09;5.95;;;2.65;;
36441;SDS011;64346;50.820;16.274;2023-06-01T06:14:36;5.07;;;2.57;;
36441;SDS011;64346;50.820;16.274;2023-06-01T06:17:07;5.90;;;2.60;;
36441;SDS011;64346;50.820;16.274;2023-06-01T06:19:34;4.82;;;2.70;;
36441;SDS011;64346;50.820;16.274;2023-06-01T06:22:01;5.25;;;2.45;;
36441;SDS011;64346;50.820;16.274;2023-06-01T06:24:29;6.82;;;3.08;;
36441;SDS011;64346;50.820;16.274;2023-06-01T06:26:58;4.93;;;2.55;;
36441;SDS011;64346;50.820;16.274;2023-06-01T06:29:28;5.38;;;2.75;;
36441;SDS011;64346;50.820;16.274;2023-06-01T06:31:56;4.32;;;2.13;;
36441;SDS011;64346;50.820;16.274;2023-06-01T06:34:23;4.07;;;2.35;;
36441;SDS011;64346;50.820;16.274;2023-06-01T06:36:58;5.43;;;3.10;;
36441;SDS011;64346;50.820;16.274;2023-06-01T06:39:28;4.70;;;2.67;;
36441;SDS011;64346;50.820;16.274;2023-06-01T06:41:55;5.90;;;2.70;;
36441;SDS011;64346;50.820;16.274;2023-06-01T06:44:22;5.28;;;2.42;;
36441;SDS011;64346;50.820;16.274;2023-06-01T06:46:50;6.05;;;2.85;;
36441;SDS011;64346;50.820;16.274;2023-06-01T06:49:18;4.75;;;3.00;;
36441;SDS011;64346;50.820;16.274;2023-06-01T06:51:45;7.03;;;2.55;;
36441;SDS011;64346;50.820;16.274;2023-06-01T06:54:13;4.13;;;2.45;;
36441;SDS011;64346;50.820;16.274;2023-06-01T06:56:42;4.90;;;2.17;;
36441;SDS011;64346;50.820;16.274;2023-06-01T06:59:12;5.45;;;2.65;;
36441;SDS011;64346;50.820;16.274;2023-06-01T07:01:40;6.63;;;2.47;;
36441;SDS011;64346;50.820;16.274;2023-06-01T07:04:08;4.30;;;2.15;;
36441;SDS011;64346;50.820;16.274;2023-06-01T07:06:35;8.30;;;2.67;;
36441;SDS011;64346;50.820;16.274;2023-06-01T07:09:05;8.95;;;5.05;;
36441;SDS011;64346;50.820;16.274;2023-06-01T07:11:32;6.28;;;2.63;;
36441;SDS011;64346;50.820;16.274;2023-06-01T07:14:02;5.75;;;2.63;;
36441;SDS011;64346;50.820;16.274;2023-06-01T07:16:29;4.82;;;2.50;;
36441;SDS011;64346;50.820;16.274;2023-06-01T07:18:59;5.72;;;2.67;;
36441;SDS011;64346;50.820;16.274;2023-06-01T07:21:27;7.15;;;2.72;;
36441;SDS011;64346;50.820;16.274;2023-06-01T07:23:54;6.38;;;2.50;;
36441;SDS011;64346;50.820;16.274;2023-06-01T07:26:21;6.07;;;3.05;;
36441;SDS011;64346;50.820;16.274;2023-06-01T07:28:49;6.28;;;2.35;;
36441;SDS011;64346;50.820;16.274;2023-06-01T07:31:16;5.63;;;2.10;;
36441;SDS011;64346;50.820;16.274;2023-06-01T07:33:44;6.55;;;2.47;;
36441;SDS011;64346;50.820;16.274;2023-06-01T07:36:11;6.75;;;2.47;;
36441;SDS011;64346;50.820;16.274;2023-06-01T07:38:41;3.72;;;2.10;;
36441;SDS011;64346;50.820;16.274;2023-06-01T07:41:08;5.05;;;2.20;;
36441;SDS011;64346;50.820;16.274;2023-06-01T07:43:36;3.25;;;2.00;;
36441;SDS011;64346;50.820;16.274;2023-06-01T07:46:04;4.35;;;2.25;;
36441;SDS011;64346;50.820;16.274;2023-06-01T07:48:32;3.90;;;2.03;;
36441;SDS011;64346;50.820;16.274;2023-06-01T07:50:59;5.93;;;2.17;;
36441;SDS011;64346;50.820;16.274;2023-06-01T07:53:27;5.18;;;2.03;;
36441;SDS011;64346;50.820;16.274;2023-06-01T07:55:54;7.22;;;2.60;;
36441;SDS011;64346;50.820;16.274;2023-06-01T07:58:22;4.28;;;2.10;;
36441;SDS011;64346;50.820;16.274;2023-06-01T08:00:49;6.38;;;2.20;;
36441;SDS011;64346;50.820;16.274;2023-06-01T08:03:16;5.10;;;2.08;;
36441;SDS011;64346;50.820;16.274;2023-06-01T08:05:44;4.70;;;2.75;;
36441;SDS011;64346;50.820;16.274;2023-06-01T08:08:12;5.38;;;1.67;;
36441;SDS011;64346;50.820;16.274;2023-06-01T08:10:39;6.88;;;2.97;;
36441;SDS011;64346;50.820;16.274;2023-06-01T08:13:09;4.43;;;2.45;;
36441;SDS011;64346;50.820;16.274;2023-06-01T08:15:39;4.05;;;2.20;;
36441;SDS011;64346;50.820;16.274;2023-06-01T08:18:07;4.82;;;2.05;;
36441;SDS011;64346;50.820;16.274;2023-06-01T08:20:34;7.30;;;3.10;;
36441;SDS011;64346;50.820;16.274;2023-06-01T08:23:01;6.03;;;3.97;;
36441;SDS011;64346;50.820;16.274;2023-06-01T08:25:31;6.30;;;2.40;;
36441;SDS011;64346;50.820;16.274;2023-06-01T08:28:01;3.58;;;2.13;;
36441;SDS011;64346;50.820;16.274;2023-06-01T08:30:28;3.80;;;2.03;;
36441;SDS011;64346;50.820;16.274;2023-06-01T08:32:58;4.65;;;1.80;;
36441;SDS011;64346;50.820;16.274;2023-06-01T08:35:26;4.22;;;2.17;;
36441;SDS011;64346;50.820;16.274;2023-06-01T08:37:53;3.20;;;1.58;;
36441;SDS011;64346;50.820;16.274;2023-06-01T08:40:20;4.68;;;2.03;;
36441;SDS011;64346;50.820;16.274;2023-06-01T08:42:55;6.72;;;2.80;;
36441;SDS011;64346;50.820;16.274;2023-06-01T08:45:38;4.43;;;2.08;;
36441;SDS011;64346;50.820;16.274;2023-06-01T08:48:07;2.03;;;1.80;;
36441;SDS011;64346;50.820;16.274;2023-06-01T08:50:35;4.68;;;1.95;;
36441;SDS011;64346;50.820;16.274;2023-06-01T08:53:03;2.25;;;1.73;;
36441;SDS011;64346;50.820;16.274;2023-06-01T08:55:32;5.20;;;2.03;;
36441;SDS011;64346;50.820;16.274;2023-06-01T08:58:03;4.43;;;1.80;;
36441;SDS011;64346;50.820;16.274;2023-06-01T09:00:31;3.85;;;2.00;;
36441;SDS011;64346;50.820;16.274;2023-06-01T09:02:59;3.75;;;2.03;;
36441;SDS011;64346;50.820;16.274;2023-06-01T09:05:29;4.60;;;1.80;;
36441;SDS011;64346;50.820;16.274;2023-06-01T09:08:00;6.40;;;2.00;;
36441;SDS011;64346;50.820;16.274;2023-06-01T09:10:27;8.98;;;4.57;;
36441;SDS011;64346;50.820;16.274;2023-06-01T09:12:54;5.53;;;2.50;;
36441;SDS011;64346;50.820;16.274;2023-06-01T09:15:22;8.88;;;3.00;;
36441;SDS011;64346;50.820;16.274;2023-06-01T09:18:03;6.10;;;2.75;;
36441;SDS011;64346;50.820;16.274;2023-06-01T09:20:40;3.47;;;2.10;;
36441;SDS011;64346;50.820;16.274;2023-06-01T09:23:07;5.72;;;2.17;;
36441;SDS011;64346;50.820;16.274;2023-06-01T09:25:34;4.03;;;1.92;;
36441;SDS011;64346;50.820;16.274;2023-06-01T09:28:04;6.95;;;2.70;;
36441;SDS011;64346;50.820;16.274;2023-06-01T09:30:42;6.10;;;2.78;;
36441;SDS011;64346;50.820;16.274;2023-06-01T09:33:16;6.95;;;2.20;;
36441;SDS011;64346;50.820;16.274;2023-06-01T09:35:47;5.97;;;2.60;;
36441;SDS011;64346;50.820;16.274;2023-06-01T09:38:23;5.38;;;2.20;;
36441;SDS011;64346;50.820;16.274;2023-06-01T09:41:01;6.07;;;2.03;;
36441;SDS011;64346;50.820;16.274;2023-06-01T09:43:33;5.63;;;2.10;;
36441;SDS011;64346;50.820;16.274;2023-06-01T09:48:30;7.07;;;2.95;;
36441;SDS011;64346;50.820;16.274;2023-06-01T09:50:57;11.43;;;3.88;;
36441;SDS011;64346;50.820;16.274;2023-06-01T09:53:39;8.95;;;3.88;;
36441;SDS011;64346;50.820;16.274;2023-06-01T09:56:10;8.73;;;3.25;;
36441;SDS011;64346;50.820;16.274;2023-06-01T09:58:38;6.18;;;2.65;;
36441;SDS011;64346;50.820;16.274;2023-06-01T10:01:07;4.78;;;2.35;;
36441;SDS011;64346;50.820;16.274;2023-06-01T10:03:35;5.55;;;2.00;;
36441;SDS011;64346;50.820;16.274;2023-06-01T10:06:10;5.85;;;2.25;;
36441;SDS011;64346;50.820;16.274;2023-06-01T10:08:40;7.38;;;2.00;;
36441;SDS011;64346;50.820;16.274;2023-06-01T10:11:08;3.25;;;2.08;;
36441;SDS011;64346;50.820;16.274;2023-06-01T10:13:36;6.85;;;2.28;;
36441;SDS011;64346;50.820;16.274;2023-06-01T10:16:03;3.40;;;2.00;;
36441;SDS011;64346;50.820;16.274;2023-06-01T10:18:34;5.22;;;2.80;;
36441;SDS011;64346;50.820;16.274;2023-06-01T10:21:02;4.90;;;1.90;;
36441;SDS011;64346;50.820;16.274;2023-06-01T10:23:31;7.85;;;2.47;;
36441;SDS011;64346;50.820;16.274;2023-06-01T10:25:59;3.88;;;2.00;;
36441;SDS011;64346;50.820;16.274;2023-06-01T10:28:35;8.95;;;3.88;;
36441;SDS011;64346;50.820;16.274;2023-06-01T10:34:10;4.35;;;2.40;;
36441;SDS011;64346;50.820;16.274;2023-06-01T10:39:23;5.22;;;2.65;;
36441;SDS011;64346;50.820;16.274;2023-06-01T10:41:56;6.05;;;2.70;;
36441;SDS011;64346;50.820;16.274;2023-06-01T10:44:52;6.00;;;2.78;;
36441;SDS011;64346;50.820;16.274;2023-06-01T10:54:56;5.45;;;2.35;;
36441;SDS011;64346;50.820;16.274;2023-06-01T11:05:39;6.85;;;4.00;;
36441;SDS011;64346;50.820;16.274;2023-06-01T11:13:21;6.00;;;2.80;;
36441;SDS011;64346;50.820;16.274;2023-06-01T11:28:39;5.65;;;2.53;;
36441;SDS011;64346;50.820;16.274;2023-06-01T11:31:08;6.63;;;2.53;;
36441;SDS011;64346;50.820;16.274;2023-06-01T11:33:40;6.50;;;3.45;;
36441;SDS011;64346;50.820;16.274;2023-06-01T11:36:08;4.43;;;2.50;;
36441;SDS011;64346;50.820;16.274;2023-06-01T11:38:38;7.90;;;3.50;;
36441;SDS011;64346;50.820;16.274;2023-06-01T11:41:15;6.35;;;3.20;;
36441;SDS011;64346;50.820;16.274;2023-06-01T11:43:42;6.63;;;2.55;;
36441;SDS011;64346;50.820;16.274;2023-06-01T11:46:09;5.05;;;2.50;;
36441;SDS011;64346;50.820;16.274;2023-06-01T11:49:06;5.78;;;2.78;;
36441;SDS011;64346;50.820;16.274;2023-06-01T11:51:36;7.25;;;2.80;;
36441;SDS011;64346;50.820;16.274;2023-06-01T11:54:09;8.77;;;2.65;;
36441;SDS011;64346;50.820;16.274;2023-06-01T11:56:37;6.78;;;3.08;;
36441;SDS011;64346;50.820;16.274;2023-06-01T11:59:04;7.07;;;3.10;;
36441;SDS011;64346;50.820;16.274;2023-06-01T12:01:32;6.07;;;2.60;;
36441;SDS011;64346;50.820;16.274;2023-06-01T12:04:00;5.93;;;2.90;;
36441;SDS011;64346;50.820;16.274;2023-06-01T12:06:28;6.47;;;2.38;;
36441;SDS011;64346;50.820;16.274;2023-06-01T12:08:55;4.95;;;2.47;;
36441;SDS011;64346;50.820;16.274;2023-06-01T12:11:26;4.90;;;2.45;;
36441;SDS011;64346;50.820;16.274;2023-06-01T12:13:54;5.88;;;2.58;;
36441;SDS011;64346;50.820;16.274;2023-06-01T12:16:22;7.75;;;2.92;;
36441;SDS011;64346;50.820;16.274;2023-06-01T12:19:10;6.65;;;2.63;;
36441;SDS011;64346;50.820;16.274;2023-06-01T12:21:52;3.95;;;1.98;;
36441;SDS011;64346;50.820;16.274;2023-06-01T12:24:30;8.07;;;3.95;;
36441;SDS011;64346;50.820;16.274;2023-06-01T12:27:00;7.65;;;2.88;;
36441;SDS011;64346;50.820;16.274;2023-06-01T12:32:06;6.22;;;2.50;;
36441;SDS011;64346;50.820;16.274;2023-06-01T12:34:35;5.82;;;2.72;;
36441;SDS011;64346;50.820;16.274;2023-06-01T12:37:12;6.55;;;2.30;;
36441;SDS011;64346;50.820;16.274;2023-06-01T12:39:53;8.23;;;2.97;;
36441;SDS011;64346;50.820;16.274;2023-06-01T12:42:37;4.15;;;2.40;;
36441;SDS011;64346;50.820;16.274;2023-06-01T12:45:07;6.97;;;3.40;;
36441;SDS011;64346;50.820;16.274;2023-06-01T12:47:38;10.65;;;3.70;;
36441;SDS011;64346;50.820;16.274;2023-06-01T12:50:10;6.68;;;2.28;;
36441;SDS011;64346;50.820;16.274;2023-06-01T12:52:39;6.47;;;2.30;;
36441;SDS011;64346;50.820;16.274;2023-06-01T12:55:09;6.65;;;2.70;;
36441;SDS011;64346;50.820;16.274;2023-06-01T12:57:39;7.07;;;2.88;;
36441;SDS011;64346;50.820;16.274;2023-06-01T13:00:07;5.72;;;2.50;;
36441;SDS011;64346;50.820;16.274;2023-06-01T13:02:34;6.88;;;2.35;;
36441;SDS011;64346;50.820;16.274;2023-06-01T13:05:07;6.43;;;2.72;;
36441;SDS011;64346;50.820;16.274;2023-06-01T13:07:35;8.10;;;3.30;;
36441;SDS011;64346;50.820;16.274;2023-06-01T13:10:02;5.68;;;2.58;;
36441;SDS011;64346;50.820;16.274;2023-06-01T13:12:30;5.35;;;2.15;;
36441;SDS011;64346;50.820;16.274;2023-06-01T13:14:58;7.35;;;2.63;;
36441;SDS011;64346;50.820;16.274;2023-06-01T13:17:27;8.73;;;2.70;;
36441;SDS011;64346;50.820;16.274;2023-06-01T13:19:55;5.03;;;2.35;;
36441;SDS011;64346;50.820;16.274;2023-06-01T13:22:24;6.30;;;2.38;;
36441;SDS011;64346;50.820;16.274;2023-06-01T13:24:54;6.03;;;2.58;;
36441;SDS011;64346;50.820;16.274;2023-06-01T13:27:31;8.57;;;4.60;;
36441;SDS011;64346;50.820;16.274;2023-06-01T13:29:59;5.47;;;2.67;;
36441;SDS011;64346;50.820;16.274;2023-06-01T13:32:26;5.88;;;2.63;;
36441;SDS011;64346;50.820;16.274;2023-06-01T13:34:54;5.38;;;2.53;;
36441;SDS011;64346;50.820;16.274;2023-06-01T13:37:22;7.22;;;2.80;;
36441;SDS011;64346;50.820;16.274;2023-06-01T13:39:50;7.43;;;2.70;;
36441;SDS011;64346;50.820;16.274;2023-06-01T13:42:19;5.72;;;2.40;;
36441;SDS011;64346;50.820;16.274;2023-06-01T13:44:47;4.50;;;2.30;;
36441;SDS011;64346;50.820;16.274;2023-06-01T13:47:14;5.70;;;2.85;;
36441;SDS011;64346;50.820;16.274;2023-06-01T13:49:45;4.47;;;2.20;;
36441;SDS011;64346;50.820;16.274;2023-06-01T13:52:12;3.85;;;2.17;;
36441;SDS011;64346;50.820;16.274;2023-06-01T13:54:40;4.07;;;2.25;;
36441;SDS011;64346;50.820;16.274;2023-06-01T13:57:09;4.82;;;2.22;;
36441;SDS011;64346;50.820;16.274;2023-06-01T13:59:37;8.90;;;2.83;;
36441;SDS011;64346;50.820;16.274;2023-06-01T14:02:07;9.38;;;2.60;;
36441;SDS011;64346;50.820;16.274;2023-06-01T14:04:35;7.95;;;4.28;;
36441;SDS011;64346;50.820;16.274;2023-06-01T14:07:02;7.85;;;2.85;;
36441;SDS011;64346;50.820;16.274;2023-06-01T14:09:32;6.90;;;2.50;;
36441;SDS011;64346;50.820;16.274;2023-06-01T14:12:03;5.15;;;2.22;;
36441;SDS011;64346;50.820;16.274;2023-06-01T14:14:33;6.00;;;2.42;;
36441;SDS011;64346;50.820;16.274;2023-06-01T14:17:00;7.90;;;3.33;;
36441;SDS011;64346;50.820;16.274;2023-06-01T14:19:30;5.28;;;2.50;;
36441;SDS011;64346;50.820;16.274;2023-06-01T14:21:57;7.15;;;2.50;;
36441;SDS011;64346;50.820;16.274;2023-06-01T14:24:27;8.68;;;2.33;;
36441;SDS011;64346;50.820;16.274;2023-06-01T14:26:57;10.60;;;4.97;;
36441;SDS011;64346;50.820;16.274;2023-06-01T14:29:27;10.57;;;5.75;;
36441;SDS011;64346;50.820;16.274;2023-06-01T14:31:56;7.50;;;3.30;;
36441;SDS011;64346;50.820;16.274;2023-06-01T14:34:24;8.38;;;2.70;;
36441;SDS011;64346;50.820;16.274;2023-06-01T14:36:53;9.10;;;2.58;;
36441;SDS011;64346;50.820;16.274;2023-06-01T14:39:21;7.75;;;2.67;;
36441;SDS011;64346;50.820;16.274;2023-06-01T14:41:48;5.78;;;2.63;;
36441;SDS011;64346;50.820;16.274;2023-06-01T14:44:18;6.35;;;2.33;;
36441;SDS011;64346;50.820;16.274;2023-06-01T14:46:45;9.02;;;4.68;;
36441;SDS011;64346;50.820;16.274;2023-06-01T14:49:12;7.88;;;2.90;;
36441;SDS011;64346;50.820;16.274;2023-06-01T14:51:40;10.63;;;3.67;;
36441;SDS011;64346;50.820;16.274;2023-06-01T14:54:07;6.78;;;3.08;;
36441;SDS011;64346;50.820;16.274;2023-06-01T14:56:34;6.15;;;3.17;;
36441;SDS011;64346;50.820;16.274;2023-06-01T14:59:02;8.57;;;3.35;;
36441;SDS011;64346;50.820;16.274;2023-06-01T15:01:29;8.32;;;3.47;;
36441;SDS011;64346;50.820;16.274;2023-06-01T15:03:57;8.45;;;2.92;;
36441;SDS011;64346;50.820;16.274;2023-06-01T15:06:24;7.85;;;2.90;;
36441;SDS011;64346;50.820;16.274;2023-06-01T15:08:54;6.00;;;2.50;;
36441;SDS011;64346;50.820;16.274;2023-06-01T15:11:23;6.22;;;3.17;;
36441;SDS011;64346;50.820;16.274;2023-06-01T15:13:51;7.97;;;3.55;;
36441;SDS011;64346;50.820;16.274;2023-06-01T15:16:18;9.35;;;3.00;;
36441;SDS011;64346;50.820;16.274;2023-06-01T15:18:45;6.10;;;2.90;;
36441;SDS011;64346;50.820;16.274;2023-06-01T15:21:12;8.95;;;3.10;;
36441;SDS011;64346;50.820;16.274;2023-06-01T15:23:40;7.30;;;3.35;;
36441;SDS011;64346;50.820;16.274;2023-06-01T15:26:07;7.60;;;2.97;;
36441;SDS011;64346;50.820;16.274;2023-06-01T15:28:37;6.35;;;3.10;;
36441;SDS011;64346;50.820;16.274;2023-06-01T15:31:08;7.78;;;3.25;;
36441;SDS011;64346;50.820;16.274;2023-06-01T15:33:36;5.70;;;3.20;;
36441;SDS011;64346;50.820;16.274;2023-06-01T15:36:05;9.43;;;3.80;;
36441;SDS011;64346;50.820;16.274;2023-06-01T15:38:35;6.43;;;2.92;;